Time;durP1;ratioP1;P1;durP2;ratioP2;P2;SDS_P1;SDS_P2;PMS_P1;PMS_P2;Temp;Humidity;BMP_temperature;BMP_pressure;BME280_temperature;BME280_humidity;BME280_pressure;Samples;Min_cycle;Max_cycle;Signal;HPM_P1;HPM_P2
2022/04/13 00:02:13;;;;;;;4.37;3.97;;;11.70;99.90;;;;;;5068578;28;20220;-76
2022/04/13 00:04:42;;;;;;;3.93;3.60;;;11.60;99.90;;;;;;5064131;28;20211;-76
2022/04/13 00:07:09;;;;;;;4.67;4.03;;;11.60;99.90;;;;;;5066459;28;20576;-76
2022/04/13 00:09:35;;;;;;;4.77;3.60;;;11.60;99.90;;;;;;5073178;28;20197;-76
2022/04/13 00:12:03;;;;;;;4.40;4.00;;;11.60;99.90;;;;;;5074135;28;20588;-76
2022/04/13 00:14:30;;;;;;;4.13;3.73;;;11.50;99.90;;;;;;5072355;28;20235;-76
2022/04/13 00:16:57;;;;;;;4.60;3.57;;;11.50;99.90;;;;;;5074150;28;20224;-76
2022/04/13 00:19:26;;;;;;;4.90;3.90;;;11.60;99.90;;;;;;5068910;28;20207;-76
2022/04/13 00:21:55;;;;;;;5.27;4.77;;;11.50;99.90;;;;;;5069475;28;20218;-76
2022/04/13 00:24:22;;;;;;;5.03;4.30;;;11.50;99.90;;;;;;5072354;28;20200;-76
2022/04/13 00:26:48;;;;;;;4.90;4.30;;;11.50;99.90;;;;;;5065713;28;20580;-76
2022/04/13 00:29:16;;;;;;;5.50;4.53;;;11.60;99.90;;;;;;5071624;28;20296;-76
2022/04/13 00:31:43;;;;;;;4.67;4.27;;;11.60;99.90;;;;;;5073558;28;20319;-76
2022/04/13 00:34:10;;;;;;;5.03;4.30;;;11.60;99.90;;;;;;5070531;28;20687;-76
2022/04/13 00:36:37;;;;;;;4.40;4.00;;;11.60;99.90;;;;;;5073953;28;20202;-76
2022/04/13 00:39:05;;;;;;;6.07;4.50;;;11.60;99.90;;;;;;5082345;28;20212;-76
2022/04/13 00:41:32;;;;;;;5.60;4.53;;;11.60;99.90;;;;;;5068548;28;20223;-76
2022/04/13 00:44:04;;;;;;;4.97;4.20;;;11.60;99.90;;;;;;5064057;28;20293;-76
2022/04/13 00:46:32;;;;;;;4.77;4.30;;;11.60;99.90;;;;;;5071289;28;20299;-76
2022/04/13 00:49:00;;;;;;;4.73;4.33;;;11.60;99.90;;;;;;5073597;28;20216;-76
2022/04/13 00:51:27;;;;;;;4.80;4.30;;;11.60;99.90;;;;;;5069998;28;20571;-77
2022/04/13 00:53:57;;;;;;;4.30;3.83;;;11.60;99.90;;;;;;5072815;28;20207;-76
2022/04/13 00:56:28;;;;;;;4.13;3.73;;;11.60;99.90;;;;;;5069155;28;20214;-76
2022/04/13 00:58:59;;;;;;;4.80;4.30;;;11.50;99.90;;;;;;5071700;28;20235;-76
2022/04/13 01:01:27;;;;;;;6.07;4.10;;;11.50;99.90;;;;;;5079464;28;20209;-76
2022/04/13 01:03:54;;;;;;;4.40;3.90;;;11.50;99.90;;;;;;5067979;28;20199;-76
2022/04/13 01:06:21;;;;;;;4.30;3.90;;;11.40;99.90;;;;;;5065106;28;20210;-76
2022/04/13 01:08:50;;;;;;;4.73;3.90;;;11.40;99.90;;;;;;5073645;28;20284;-76
2022/04/13 01:11:18;;;;;;;4.13;3.73;;;11.30;99.90;;;;;;5073121;28;20208;-76
2022/04/13 01:13:46;;;;;;;5.73;3.77;;;11.30;99.90;;;;;;5067995;28;20634;-76
2022/04/13 01:16:14;;;;;;;5.50;4.37;;;11.20;99.90;;;;;;5062902;28;20250;-76
2022/04/13 01:18:41;;;;;;;5.20;4.70;;;11.30;99.90;;;;;;5090196;28;20225;-76
2022/04/13 01:21:12;;;;;;;4.30;3.90;;;11.20;99.90;;;;;;5088907;28;20235;-76
2022/04/13 01:23:41;;;;;;;3.90;3.60;;;11.30;99.90;;;;;;5085744;28;20220;-76
2022/04/13 01:26:10;;;;;;;4.60;4.20;;;11.20;99.90;;;;;;5061450;28;20201;-76
2022/04/13 01:28:37;;;;;;;4.50;4.10;;;11.20;99.90;;;;;;5064748;28;20281;-76
2022/04/13 01:31:05;;;;;;;4.30;3.90;;;11.20;99.90;;;;;;5081197;28;20227;-76
2022/04/13 01:33:32;;;;;;;4.10;3.70;;;11.10;99.90;;;;;;5063015;28;20228;-77
2022/04/13 01:36:01;;;;;;;4.67;4.13;;;11.10;99.90;;;;;;5072801;28;20199;-78
2022/04/13 01:38:28;;;;;;;4.87;4.37;;;11.00;99.90;;;;;;5072582;28;20708;-77
2022/04/13 01:40:58;;;;;;;4.50;4.10;;;10.90;99.90;;;;;;5064438;28;20196;-77
2022/04/13 01:43:25;;;;;;;4.97;4.47;;;10.90;99.90;;;;;;5067647;28;20214;-77
2022/04/13 01:45:53;;;;;;;4.70;4.20;;;10.80;99.90;;;;;;5081174;28;20189;-77
2022/04/13 01:48:20;;;;;;;4.93;4.43;;;10.80;99.90;;;;;;5064273;28;20202;-77
2022/04/13 01:50:47;;;;;;;4.00;3.70;;;10.80;99.90;;;;;;5067304;28;20195;-77
2022/04/13 01:53:14;;;;;;;5.90;4.10;;;10.70;99.90;;;;;;5069144;28;20214;-77
2022/04/13 01:55:41;;;;;;;3.40;3.00;;;10.70;99.90;;;;;;5070699;28;20203;-77
2022/04/13 01:58:09;;;;;;;5.03;3.83;;;10.70;99.90;;;;;;5064253;28;20300;-77
2022/04/13 02:00:37;;;;;;;5.27;3.40;;;10.70;99.90;;;;;;5063955;28;20207;-77
2022/04/13 02:03:04;;;;;;;5.00;3.73;;;10.60;99.90;;;;;;5065111;28;20218;-77
2022/04/13 02:05:31;;;;;;;5.07;4.17;;;10.60;99.90;;;;;;5068796;28;20241;-78
2022/04/13 02:07:58;;;;;;;5.27;4.20;;;10.50;99.90;;;;;;5064478;28;20218;-77
2022/04/13 02:10:25;;;;;;;4.93;4.20;;;10.50;99.90;;;;;;5068690;28;20209;-77
2022/04/13 02:12:52;;;;;;;4.37;3.97;;;10.40;99.90;;;;;;5065814;28;20222;-78
2022/04/13 02:15:21;;;;;;;5.37;3.87;;;10.40;99.90;;;;;;5063997;28;20277;-77
2022/04/13 02:17:48;;;;;;;6.20;4.17;;;10.30;99.90;;;;;;5080040;28;20211;-77
2022/04/13 02:20:15;;;;;;;4.73;4.20;;;10.30;99.90;;;;;;5063696;28;20199;-78
2022/04/13 02:22:45;;;;;;;4.63;3.77;;;10.30;99.90;;;;;;5080067;28;20225;-77
2022/04/13 02:25:13;;;;;;;4.77;4.27;;;10.20;99.90;;;;;;5063432;28;20206;-77
2022/04/13 02:27:40;;;;;;;4.63;3.80;;;10.20;99.90;;;;;;5080260;28;20301;-77
2022/04/13 02:30:08;;;;;;;5.60;4.80;;;10.10;99.90;;;;;;5068184;28;20206;-77
2022/04/13 02:32:39;;;;;;;5.30;4.60;;;10.10;99.90;;;;;;5062767;28;20226;-77
2022/04/13 02:35:07;;;;;;;6.07;4.30;;;10.00;99.90;;;;;;5063274;28;20191;-77
2022/04/13 02:37:34;;;;;;;4.40;4.00;;;9.90;99.90;;;;;;5066778;28;20240;-77
2022/04/13 02:40:01;;;;;;;5.13;4.63;;;9.80;99.90;;;;;;5071289;28;20244;-77
2022/04/13 02:42:32;;;;;;;4.83;4.33;;;9.70;99.90;;;;;;5065469;28;20706;-77
2022/04/13 02:45:00;;;;;;;5.37;4.67;;;9.70;99.90;;;;;;5072820;28;20194;-85
2022/04/13 02:47:27;;;;;;;6.93;4.90;;;9.60;99.90;;;;;;5066985;28;20301;-79
2022/04/13 02:49:56;;;;;;;4.93;4.43;;;9.60;99.90;;;;;;5071303;28;20670;-78
2022/04/13 02:52:23;;;;;;;5.30;4.80;;;9.60;99.90;;;;;;5070726;28;20214;-76
2022/04/13 02:54:50;;;;;;;5.63;4.83;;;9.70;99.90;;;;;;5071857;28;20198;-79
2022/04/13 02:57:18;;;;;;;5.33;4.83;;;9.70;99.90;;;;;;5070661;28;20671;-80
2022/04/13 02:59:46;;;;;;;5.73;5.17;;;9.70;99.90;;;;;;5064342;28;20773;-78
2022/04/13 03:02:14;;;;;;;5.73;5.20;;;9.60;99.90;;;;;;5070923;28;20222;-79
2022/04/13 03:04:42;;;;;;;9.97;8.00;;;9.60;99.90;;;;;;5070588;28;20203;-79
2022/04/13 03:07:11;;;;;;;10.30;7.77;;;9.60;99.90;;;;;;5068857;28;20277;-79
2022/04/13 03:09:38;;;;;;;9.33;7.40;;;9.70;99.90;;;;;;5079466;28;20674;-79
2022/04/13 03:12:07;;;;;;;11.97;7.23;;;9.70;99.90;;;;;;5069027;28;20257;-80
2022/04/13 03:14:34;;;;;;;8.77;7.03;;;9.80;99.90;;;;;;5070989;28;20667;-80
2022/04/13 03:17:01;;;;;;;8.30;6.50;;;9.80;99.90;;;;;;5069468;28;20202;-80
2022/04/13 03:19:28;;;;;;;8.07;6.20;;;9.80;99.90;;;;;;5070064;28;20309;-78
2022/04/13 03:21:55;;;;;;;8.63;6.87;;;9.80;99.90;;;;;;5061707;28;20593;-78
2022/04/13 03:24:24;;;;;;;7.97;6.17;;;9.90;99.90;;;;;;5062876;28;20641;-79
2022/04/13 03:26:52;;;;;;;8.47;5.47;;;9.90;99.90;;;;;;5065292;28;20205;-80
2022/04/13 03:29:19;;;;;;;7.57;5.93;;;9.90;99.90;;;;;;5067229;28;20289;-80
2022/04/13 03:31:46;;;;;;;6.67;5.83;;;9.80;99.90;;;;;;5064106;28;20794;-79
2022/04/13 03:34:13;;;;;;;5.93;5.33;;;9.90;99.90;;;;;;5070558;28;20187;-83
2022/04/13 03:36:40;;;;;;;6.30;5.20;;;9.90;99.90;;;;;;5062856;28;20222;-79
2022/04/13 03:39:07;;;;;;;6.53;4.90;;;9.90;99.90;;;;;;5062496;28;20210;-80
2022/04/13 03:41:37;;;;;;;5.50;5.00;;;9.90;99.90;;;;;;5062407;28;20217;-78
2022/04/13 03:44:04;;;;;;;6.20;4.93;;;9.90;99.90;;;;;;5070518;28;20635;-81
2022/04/13 03:46:32;;;;;;;6.37;5.20;;;9.80;99.90;;;;;;5072375;28;20528;-81
2022/04/13 03:48:59;;;;;;;5.60;4.40;;;9.80;99.90;;;;;;5062798;28;20199;-79
2022/04/13 03:51:26;;;;;;;3.97;3.57;;;9.80;99.90;;;;;;5061981;28;20198;-79
2022/04/13 03:53:53;;;;;;;6.40;4.07;;;9.70;99.90;;;;;;5062340;28;20228;-79
2022/04/13 03:56:20;;;;;;;6.00;4.07;;;9.60;99.90;;;;;;5062261;28;20199;-80
2022/04/13 03:58:49;;;;;;;6.63;4.30;;;9.60;99.90;;;;;;5065889;28;20215;-80
2022/04/13 04:01:16;;;;;;;6.30;4.90;;;9.60;99.90;;;;;;5059278;28;20215;-80
2022/04/13 04:03:43;;;;;;;6.43;4.87;;;9.50;99.90;;;;;;5070554;28;20225;-80
2022/04/13 04:06:10;;;;;;;6.43;4.67;;;9.50;99.90;;;;;;5087540;28;20206;-78
2022/04/13 04:08:37;;;;;;;5.97;4.30;;;9.40;99.90;;;;;;5079327;28;20504;-79
2022/04/13 04:11:04;;;;;;;5.00;4.00;;;9.40;99.90;;;;;;5069194;28;20198;-79
2022/04/13 04:13:31;;;;;;;6.10;4.33;;;9.30;99.90;;;;;;5075880;28;20227;-78
2022/04/13 04:16:00;;;;;;;5.70;4.10;;;9.20;99.90;;;;;;5065559;28;20285;-79
2022/04/13 04:18:27;;;;;;;5.23;4.37;;;9.20;99.90;;;;;;5076837;28;20622;-79
2022/04/13 04:20:54;;;;;;;6.80;4.43;;;9.10;99.90;;;;;;5061045;28;20195;-79
2022/04/13 04:23:22;;;;;;;6.00;4.40;;;9.00;99.90;;;;;;5062363;28;20223;-79
2022/04/13 04:25:49;;;;;;;6.10;4.70;;;9.00;99.90;;;;;;5065413;28;20295;-79
2022/04/13 04:28:16;;;;;;;6.73;4.73;;;8.90;99.90;;;;;;5067117;28;20285;-79
2022/04/13 04:30:43;;;;;;;5.93;4.63;;;8.90;99.90;;;;;;5059574;28;20289;-79
2022/04/13 04:33:14;;;;;;;5.57;4.50;;;8.90;99.90;;;;;;5066864;28;20325;-79
2022/04/13 04:35:41;;;;;;;7.60;4.63;;;8.90;99.90;;;;;;5083018;28;20210;-78
2022/04/13 04:38:08;;;;;;;5.23;4.50;;;8.90;99.90;;;;;;5066485;28;20203;-79
2022/04/13 04:40:35;;;;;;;8.43;4.50;;;8.80;99.90;;;;;;5061606;28;20203;-79
2022/04/13 04:43:02;;;;;;;6.27;4.30;;;8.80;99.90;;;;;;5078715;28;20313;-79
2022/04/13 04:45:29;;;;;;;4.07;3.60;;;8.90;99.90;;;;;;5059349;28;20195;-78
2022/04/13 04:47:57;;;;;;;5.40;3.80;;;8.90;99.90;;;;;;5076255;28;20202;-79
2022/04/13 04:50:27;;;;;;;4.77;4.00;;;8.90;99.90;;;;;;5072062;28;20290;-80
2022/04/13 04:52:54;;;;;;;5.23;4.20;;;9.00;99.90;;;;;;5069093;28;20336;-78
2022/04/13 04:55:21;;;;;;;5.63;4.00;;;9.00;99.90;;;;;;5069898;28;20203;-79
2022/04/13 04:57:49;;;;;;;5.13;3.93;;;9.00;99.90;;;;;;5073651;28;20220;-78
2022/04/13 05:00:18;;;;;;;5.70;4.30;;;9.10;99.90;;;;;;5065433;28;20245;-80
2022/04/13 05:02:46;;;;;;;5.67;4.20;;;9.10;99.90;;;;;;5082044;28;20221;-79
2022/04/13 05:05:14;;;;;;;6.70;4.47;;;9.20;99.90;;;;;;5065191;28;20195;-79
2022/04/13 05:07:42;;;;;;;6.43;4.37;;;9.30;99.90;;;;;;5082498;28;20205;-78
2022/04/13 05:10:10;;;;;;;5.07;4.07;;;9.40;99.90;;;;;;5070187;28;20191;-79
2022/04/13 05:12:44;;;;;;;4.93;4.10;;;9.50;99.90;;;;;;5066332;28;20219;-79
2022/04/13 05:15:12;;;;;;;5.00;3.93;;;9.60;99.90;;;;;;5070506;28;20292;-79
2022/04/13 05:17:40;;;;;;;4.60;4.10;;;9.70;99.90;;;;;;5062214;28;20226;-79
2022/04/13 05:20:08;;;;;;;5.00;4.17;;;9.80;99.90;;;;;;5067592;28;20225;-80
2022/04/13 05:22:36;;;;;;;6.30;3.80;;;9.90;99.90;;;;;;5064738;28;20221;-80
2022/04/13 05:25:06;;;;;;;5.90;4.00;;;10.10;99.90;;;;;;5065986;28;20568;-79
2022/04/13 05:27:33;;;;;;;6.57;3.90;;;10.20;99.90;;;;;;5069925;28;20195;-79
2022/04/13 05:30:00;;;;;;;5.40;4.10;;;10.40;99.90;;;;;;5068319;28;20641;-79
2022/04/13 05:32:27;;;;;;;5.60;4.00;;;10.50;99.90;;;;;;5065819;28;20230;-79
2022/04/13 05:35:00;;;;;;;6.77;4.63;;;10.70;99.90;;;;;;5067400;28;20665;-79
2022/04/13 05:37:27;;;;;;;6.27;4.13;;;10.90;99.90;;;;;;5079375;28;20301;-79
2022/04/13 05:39:54;;;;;;;5.07;4.07;;;11.10;99.90;;;;;;5064584;28;20225;-79
2022/04/13 05:42:24;;;;;;;5.60;4.60;;;11.30;99.90;;;;;;5064532;28;20224;-79
2022/04/13 05:44:52;;;;;;;8.83;5.03;;;11.50;99.90;;;;;;5066919;28;20681;-79
2022/04/13 05:47:19;;;;;;;6.77;4.57;;;11.70;99.90;;;;;;5072030;28;20290;-79
2022/04/13 05:49:46;;;;;;;7.20;4.43;;;11.90;99.90;;;;;;5065608;28;20709;-79
2022/04/13 05:52:13;;;;;;;7.73;4.40;;;12.00;99.90;;;;;;5072702;28;20282;-79
2022/04/13 05:54:40;;;;;;;5.50;4.17;;;12.20;99.90;;;;;;5072785;28;20212;-80
2022/04/13 05:57:08;;;;;;;4.77;4.23;;;12.40;99.90;;;;;;5072634;28;20203;-79
2022/04/13 05:59:36;;;;;;;5.27;4.23;;;12.60;99.90;;;;;;5063456;28;20686;-80
2022/04/13 06:02:04;;;;;;;5.43;4.53;;;12.90;99.90;;;;;;5065105;28;20307;-79
2022/04/13 06:04:31;;;;;;;4.93;4.27;;;13.10;99.90;;;;;;5068846;28;20302;-80
2022/04/13 06:07:01;;;;;;;9.40;4.40;;;13.40;99.90;;;;;;5067134;28;20195;-79
2022/04/13 06:09:28;;;;;;;4.80;4.30;;;13.60;99.90;;;;;;5063945;28;20206;-79
2022/04/13 06:11:55;;;;;;;5.37;4.20;;;13.90;99.90;;;;;;5080819;28;20215;-79
2022/04/13 06:14:22;;;;;;;4.57;3.93;;;14.30;99.90;;;;;;5062702;28;20248;-79
2022/04/13 06:16:50;;;;;;;5.67;4.00;;;14.40;99.90;;;;;;5067237;28;20291;-79
2022/04/13 06:19:17;;;;;;;9.47;5.43;;;14.50;99.90;;;;;;5068595;28;20716;-80
2022/04/13 06:21:44;;;;;;;4.93;4.50;;;14.60;99.90;;;;;;5063499;28;20652;-81
2022/04/13 06:24:11;;;;;;;5.20;4.37;;;14.80;99.90;;;;;;5068730;28;20196;-80
2022/04/13 06:26:38;;;;;;;6.40;4.50;;;15.00;99.90;;;;;;5065471;28;20199;-80
2022/04/13 06:29:06;;;;;;;8.97;4.17;;;15.00;99.90;;;;;;5064133;28;20205;-80
2022/04/13 06:31:33;;;;;;;5.07;4.23;;;15.00;99.90;;;;;;5064560;28;20660;-79
2022/04/13 06:34:02;;;;;;;4.53;3.63;;;15.10;99.90;;;;;;5064998;28;20196;-79
2022/04/13 06:36:29;;;;;;;4.13;3.37;;;15.30;99.90;;;;;;5063053;28;20658;-79
2022/04/13 06:38:56;;;;;;;5.33;3.73;;;15.60;99.90;;;;;;5077463;28;20235;-80
2022/04/13 06:41:23;;;;;;;4.10;3.70;;;15.60;99.90;;;;;;5065719;28;20200;-79
2022/04/13 06:43:52;;;;;;;4.43;4.00;;;15.60;99.90;;;;;;5076292;28;20565;-79
2022/04/13 06:46:19;;;;;;;6.40;4.27;;;15.70;99.90;;;;;;5068829;28;20753;-79
2022/04/13 06:48:46;;;;;;;7.17;4.00;;;15.90;99.90;;;;;;5071421;28;20289;-79
2022/04/13 06:51:15;;;;;;;4.73;3.70;;;15.80;99.90;;;;;;5076514;28;20294;-79
2022/04/13 06:53:42;;;;;;;5.00;3.17;;;16.00;99.90;;;;;;5077230;28;20305;-80
2022/04/13 06:56:09;;;;;;;3.60;3.30;;;16.30;99.90;;;;;;5068457;28;20310;-79
2022/04/13 06:58:36;;;;;;;4.33;3.87;;;16.40;99.90;;;;;;5076426;28;20294;-80
2022/04/13 07:01:03;;;;;;;4.23;3.80;;;16.50;99.90;;;;;;5062925;28;20244;-80
2022/04/13 07:03:30;;;;;;;5.27;4.47;;;16.70;99.90;;;;;;5062835;28;20223;-80
2022/04/13 07:05:57;;;;;;;5.73;4.00;;;16.80;99.90;;;;;;5064739;28;20203;-79
2022/04/13 07:08:25;;;;;;;6.10;4.30;;;16.90;99.90;;;;;;5067766;28;20285;-80
2022/04/13 07:10:52;;;;;;;5.60;5.10;;;17.00;99.90;;;;;;5064413;28;20644;-79
2022/04/13 07:13:19;;;;;;;6.00;4.37;;;17.10;99.90;;;;;;5062469;28;20231;-80
2022/04/13 07:15:46;;;;;;;7.70;4.83;;;17.20;99.90;;;;;;5063199;28;20198;-79
2022/04/13 07:18:13;;;;;;;5.40;3.80;;;17.30;99.90;;;;;;5062356;28;20641;-80
2022/04/13 07:20:40;;;;;;;4.70;4.23;;;17.40;99.90;;;;;;5063722;28;20220;-82
2022/04/13 07:23:07;;;;;;;5.53;4.40;;;17.70;99.90;;;;;;5070424;28;20211;-80
2022/04/13 07:25:36;;;;;;;6.27;5.67;;;18.00;99.90;;;;;;5074939;28;20237;-81
2022/04/13 07:28:03;;;;;;;6.13;5.63;;;18.20;99.90;;;;;;5074053;28;20203;-80
2022/04/13 07:30:31;;;;;;;6.87;5.40;;;18.30;99.90;;;;;;5079835;28;20200;-79
2022/04/13 07:33:01;;;;;;;5.67;4.10;;;18.40;99.90;;;;;;5067951;28;20319;-79
2022/04/13 07:35:29;;;;;;;7.73;5.23;;;18.60;99.90;;;;;;5065398;28;20242;-80
2022/04/13 07:37:56;;;;;;;5.63;5.13;;;18.60;99.90;;;;;;5068909;28;20205;-80
2022/04/13 07:40:23;;;;;;;5.37;4.83;;;18.70;99.90;;;;;;5072267;28;20220;-80
2022/04/13 07:42:52;;;;;;;6.37;4.90;;;18.90;99.90;;;;;;5073843;28;20258;-80
2022/04/13 07:45:19;;;;;;;5.27;4.87;;;18.90;99.90;;;;;;5077330;28;20286;-80
2022/04/13 07:47:46;;;;;;;5.90;5.27;;;19.10;99.90;;;;;;5070298;28;20288;-79
2022/04/13 07:50:13;;;;;;;6.67;4.60;;;19.20;99.90;;;;;;5065934;28;20224;-80
2022/04/13 07:52:42;;;;;;;5.33;4.40;;;19.30;99.90;;;;;;5074049;28;20248;-80
2022/04/13 07:55:10;;;;;;;6.00;4.30;;;19.30;99.90;;;;;;5066279;28;20189;-80
2022/04/13 07:57:38;;;;;;;5.23;4.03;;;19.50;99.90;;;;;;5063987;28;20207;-80
2022/04/13 08:00:09;;;;;;;5.03;4.10;;;19.70;99.90;;;;;;5072096;28;20223;-80
2022/04/13 08:02:40;;;;;;;6.87;5.03;;;20.00;99.90;;;;;;5068178;28;20267;-80
2022/04/13 08:05:08;;;;;;;4.87;4.10;;;20.20;99.90;;;;;;5066757;28;20289;-79
2022/04/13 08:07:36;;;;;;;8.27;4.17;;;20.50;99.90;;;;;;5070935;28;20224;-80
2022/04/13 08:10:04;;;;;;;8.53;4.90;;;20.60;99.90;;;;;;5069649;28;20205;-78
2022/04/13 08:12:31;;;;;;;6.60;4.90;;;20.50;99.90;;;;;;5074196;28;20662;-80
2022/04/13 08:15:00;;;;;;;4.73;4.20;;;20.50;99.90;;;;;;5082620;28;20248;-80
2022/04/13 08:17:29;;;;;;;5.80;4.43;;;20.70;99.90;;;;;;5064344;28;20195;-80
2022/04/13 08:19:56;;;;;;;6.77;5.10;;;20.70;99.90;;;;;;5068057;28;20207;-80
2022/04/13 08:22:24;;;;;;;7.13;5.50;;;20.70;99.90;;;;;;5072673;28;20244;-80
2022/04/13 08:24:51;;;;;;;6.00;5.17;;;20.90;99.90;;;;;;5072021;28;20249;-80
2022/04/13 08:27:18;;;;;;;6.07;4.80;;;21.20;99.90;;;;;;5072584;28;20220;-80
2022/04/13 08:29:46;;;;;;;6.53;5.20;;;21.60;99.90;;;;;;5070966;28;20293;-79
2022/04/13 08:32:13;;;;;;;6.83;5.00;;;21.80;99.90;;;;;;5068298;28;20226;-79
2022/04/13 08:34:42;;;;;;;6.77;4.63;;;21.90;99.90;;;;;;5069104;28;20600;-79
2022/04/13 08:37:10;;;;;;;7.07;4.80;;;22.00;99.90;;;;;;5069258;28;20201;-79
2022/04/13 08:39:37;;;;;;;6.50;3.87;;;22.00;99.90;;;;;;5074086;28;20211;-80
2022/04/13 08:42:12;;;;;;;4.50;4.10;;;22.10;99.90;;;;;;5067392;28;20222;-80
2022/04/13 08:44:50;;;;;;;5.00;4.03;;;22.40;99.90;;;;;;5068546;28;20202;-80
2022/04/13 08:47:19;;;;;;;5.73;4.57;;;22.80;99.90;;;;;;5085596;28;20289;-80
2022/04/13 08:49:50;;;;;;;7.13;5.07;;;23.10;99.90;;;;;;5072080;28;20192;-79
2022/04/13 08:52:20;;;;;;;6.73;4.33;;;22.80;99.90;;;;;;5074272;28;20277;-79
2022/04/13 08:54:57;;;;;;;4.87;3.97;;;22.90;99.90;;;;;;5065310;28;20660;-79
2022/04/13 08:57:29;;;;;;;5.13;3.80;;;23.10;99.90;;;;;;5075495;28;20289;-79
2022/04/13 09:00:06;;;;;;;8.83;5.53;;;23.30;99.90;;;;;;5076706;28;20242;-79
2022/04/13 09:02:49;;;;;;;7.03;5.17;;;23.20;99.90;;;;;;5074374;28;20223;-80
2022/04/13 09:05:20;;;;;;;7.07;4.77;;;23.20;99.90;;;;;;5073349;28;20244;-80
2022/04/13 09:07:49;;;;;;;5.20;3.97;;;23.20;99.90;;;;;;5066250;28;20286;-79
2022/04/13 09:10:20;;;;;;;8.10;3.80;;;23.40;99.70;;;;;;5073267;28;20617;-79
2022/04/13 09:12:50;;;;;;;3.97;3.07;;;23.60;99.90;;;;;;5068040;28;20277;-79
2022/04/13 09:15:17;;;;;;;5.87;3.13;;;23.70;99.60;;;;;;5068443;28;20336;-79
2022/04/13 09:17:46;;;;;;;4.03;3.20;;;23.80;98.80;;;;;;5085007;28;20248;-79
2022/04/13 09:20:14;;;;;;;5.60;3.20;;;24.10;99.40;;;;;;5082097;28;20249;-79
2022/04/13 09:22:43;;;;;;;5.73;3.97;;;24.20;98.40;;;;;;5075046;28;20273;-80
2022/04/13 09:25:12;;;;;;;5.57;3.83;;;24.40;99.40;;;;;;5068876;28;20285;-80
2022/04/13 09:27:39;;;;;;;5.03;3.70;;;24.30;98.70;;;;;;5069200;28;20202;-80
2022/04/13 09:30:08;;;;;;;4.83;3.20;;;24.10;98.00;;;;;;5086050;28;20719;-80
2022/04/13 09:32:35;;;;;;;4.87;3.23;;;24.00;98.60;;;;;;5081196;28;20322;-80
2022/04/13 09:35:03;;;;;;;3.83;3.07;;;24.20;98.50;;;;;;5068432;28;20657;-81
2022/04/13 09:37:32;;;;;;;7.50;4.37;;;24.30;99.10;;;;;;5072087;28;20655;-79
2022/04/13 09:40:01;;;;;;;8.13;4.60;;;24.50;98.90;;;;;;5070979;28;20218;-80
2022/04/13 09:42:28;;;;;;;7.73;6.90;;;24.60;97.60;;;;;;5081348;28;20218;-79
2022/04/13 09:44:56;;;;;;;7.50;6.80;;;24.40;97.40;;;;;;5068567;28;20670;-80
2022/04/13 09:47:29;;;;;;;8.73;6.63;;;24.60;98.20;;;;;;5067002;28;20196;-80
2022/04/13 09:49:56;;;;;;;8.77;6.53;;;24.90;96.50;;;;;;5070690;28;20197;-78
2022/04/13 09:52:27;;;;;;;7.77;6.80;;;24.90;97.10;;;;;;5067677;28;20219;-80
2022/04/13 09:54:55;;;;;;;7.03;4.93;;;24.90;95.80;;;;;;5076135;28;20248;-80
2022/04/13 09:57:24;;;;;;;7.30;6.57;;;24.80;96.20;;;;;;5075031;28;20237;-80
2022/04/13 09:59:55;;;;;;;8.30;7.20;;;24.80;96.90;;;;;;5067393;28;20286;-80
2022/04/13 10:02:35;;;;;;;4.33;2.83;;;24.80;97.20;;;;;;5066969;28;20219;-80
2022/04/13 10:05:03;;;;;;;3.17;2.60;;;24.70;96.00;;;;;;5080251;28;20190;-79
2022/04/13 10:07:30;;;;;;;4.43;2.83;;;24.70;95.50;;;;;;5069731;28;20787;-77
2022/04/13 10:09:57;;;;;;;7.23;5.07;;;24.50;95.00;;;;;;5068549;28;20220;-78
2022/04/13 10:12:25;;;;;;;7.00;6.40;;;24.40;94.50;;;;;;5075174;28;20226;-78
2022/04/13 10:14:52;;;;;;;9.33;7.33;;;24.20;94.60;;;;;;5067208;28;20281;-78
2022/04/13 10:17:20;;;;;;;7.03;6.30;;;24.00;94.30;;;;;;5063432;28;20206;-77
2022/04/13 10:19:54;;;;;;;10.03;6.60;;;23.80;94.10;;;;;;5063313;28;20248;-78
2022/04/13 10:22:21;;;;;;;7.10;6.40;;;23.50;93.80;;;;;;5063318;28;20228;-78
2022/04/13 10:24:48;;;;;;;7.93;6.20;;;23.30;94.00;;;;;;5080955;28;20198;-78
2022/04/13 10:27:17;;;;;;;7.20;5.87;;;23.50;95.20;;;;;;5078063;28;20219;-77
2022/04/13 10:29:47;;;;;;;6.17;4.63;;;23.60;93.50;;;;;;5069820;28;20199;-78
2022/04/13 10:32:16;;;;;;;7.30;2.70;;;23.30;93.20;;;;;;5062733;28;20254;-77
2022/04/13 10:34:44;;;;;;;6.67;4.90;;;23.20;93.30;;;;;;5078967;28;20299;-78
2022/04/13 10:37:13;;;;;;;5.03;4.53;;;23.30;94.00;;;;;;5063668;28;20281;-78
2022/04/13 10:39:41;;;;;;;6.47;4.50;;;23.50;94.90;;;;;;5063347;28;20198;-78
2022/04/13 10:42:10;;;;;;;7.63;6.37;;;23.50;94.00;;;;;;5063310;28;20223;-78
2022/04/13 10:44:38;;;;;;;7.27;6.57;;;23.40;93.40;;;;;;5065935;28;20206;-77
2022/04/13 10:47:08;;;;;;;7.53;6.80;;;23.30;94.40;;;;;;5071595;28;20628;-77
2022/04/13 10:49:45;;;;;;;7.93;6.60;;;23.20;94.10;;;;;;5067830;28;20229;-78
2022/04/13 10:52:20;;;;;;;7.03;6.43;;;23.10;94.40;;;;;;5067671;28;20218;-77
2022/04/13 10:54:54;;;;;;;7.00;6.40;;;23.10;94.90;;;;;;5069076;28;20293;-77
2022/04/13 10:57:25;;;;;;;6.83;5.07;;;23.10;96.20;;;;;;5063068;28;20580;-77
2022/04/13 10:59:54;;;;;;;6.57;5.83;;;23.20;96.10;;;;;;5079766;28;20199;-79
2022/04/13 11:02:30;;;;;;;6.87;6.17;;;23.20;95.80;;;;;;5076261;28;20257;-79
2022/04/13 11:04:58;;;;;;;7.20;6.50;;;23.20;95.00;;;;;;5069579;28;20198;-77
2022/04/13 11:07:25;;;;;;;7.63;6.87;;;23.20;95.00;;;;;;5077531;28;20195;-78
2022/04/13 11:09:56;;;;;;;7.93;6.20;;;23.20;96.20;;;;;;5063965;28;20199;-78
2022/04/13 11:12:25;;;;;;;6.50;5.90;;;23.40;96.00;;;;;;5063846;28;20218;-77
2022/04/13 11:14:53;;;;;;;8.20;5.80;;;23.30;95.30;;;;;;5079511;28;20224;-77
2022/04/13 11:17:28;;;;;;;7.30;6.50;;;23.20;95.30;;;;;;5071254;28;20229;-77
2022/04/13 11:20:29;;;;;;;6.90;6.20;;;23.10;95.60;;;;;;5072278;28;20248;-78
2022/04/13 11:23:10;;;;;;;10.87;6.13;;;23.10;95.20;;;;;;4989217;28;20212;-77
2022/04/13 11:25:48;;;;;;;6.60;6.00;;;23.20;95.30;;;;;;4970525;28;20296;-77
2022/04/13 11:28:28;;;;;;;8.10;6.77;;;23.20;96.10;;;;;;5028843;28;20226;-77
2022/04/13 11:31:03;;;;;;;8.73;7.07;;;23.20;96.50;;;;;;5064653;28;20748;-78
2022/04/13 11:33:52;;;;;;;6.93;6.33;;;23.20;96.80;;;;;;5081728;28;20322;-78
2022/04/13 11:36:21;;;;;;;8.13;6.40;;;23.20;96.20;;;;;;5067447;28;20202;-77
2022/04/13 11:38:51;;;;;;;6.80;6.30;;;23.40;97.60;;;;;;5064308;28;20663;-77
2022/04/13 11:41:18;;;;;;;6.00;5.50;;;23.50;96.70;;;;;;5062562;28;20222;-77
2022/04/13 11:43:46;;;;;;;5.73;5.27;;;23.50;95.60;;;;;;5063638;28;20305;-77
2022/04/13 11:46:36;;;;;;;5.90;5.37;;;23.60;96.80;;;;;;5061899;28;20577;-77
2022/04/13 11:49:08;;;;;;;8.57;5.87;;;23.50;95.00;;;;;;5051356;28;20194;-77
2022/04/13 11:51:36;;;;;;;6.70;6.07;;;23.50;95.80;;;;;;5064766;28;20278;-77
2022/04/13 11:54:08;;;;;;;8.80;6.70;;;23.30;95.50;;;;;;5065758;28;20194;-77
2022/04/13 11:56:36;;;;;;;6.43;5.90;;;23.20;95.50;;;;;;5074114;28;20260;-77
2022/04/13 11:59:04;;;;;;;8.80;6.60;;;23.30;96.00;;;;;;5066592;28;20190;-77
2022/04/13 12:01:33;;;;;;;7.07;6.37;;;23.10;95.50;;;;;;5075720;28;20702;-77
2022/04/13 12:04:06;;;;;;;7.07;6.40;;;23.20;96.40;;;;;;5062199;28;20679;-77
2022/04/13 12:06:33;;;;;;;6.47;5.90;;;23.30;96.80;;;;;;5061921;28;20304;-77
2022/04/13 12:09:02;;;;;;;6.40;5.83;;;23.50;96.00;;;;;;5063657;28;20194;-78
2022/04/13 12:11:40;;;;;;;6.27;5.77;;;23.50;95.10;;;;;;5066192;28;20191;-77
2022/04/13 12:14:09;;;;;;;6.93;6.37;;;23.40;96.00;;;;;;5060662;28;20223;-77
2022/04/13 12:16:39;;;;;;;6.93;6.23;;;23.40;95.30;;;;;;5061874;28;20667;-78
2022/04/13 12:19:09;;;;;;;7.30;6.60;;;23.50;95.20;;;;;;5066786;28;20202;-77
2022/04/13 12:21:37;;;;;;;7.67;6.47;;;23.40;95.00;;;;;;5075487;28;20249;-78
2022/04/13 12:24:05;;;;;;;7.17;6.57;;;23.50;95.00;;;;;;5063277;28;20293;-77
2022/04/13 12:26:34;;;;;;;7.60;6.07;;;23.40;94.30;;;;;;5061833;28;20256;-77
2022/04/13 12:29:01;;;;;;;7.53;6.80;;;23.50;95.00;;;;;;5063447;28;20215;-78
2022/04/13 12:31:29;;;;;;;6.60;6.00;;;23.40;94.60;;;;;;5066057;28;20198;-77
2022/04/13 12:34:01;;;;;;;7.37;6.37;;;23.40;95.50;;;;;;5064578;28;20297;-77
2022/04/13 12:36:29;;;;;;;7.00;6.30;;;23.50;95.60;;;;;;5070598;28;20208;-80
2022/04/13 12:38:57;;;;;;;7.47;6.70;;;23.50;94.60;;;;;;5070620;28;20236;-77
2022/04/13 12:41:25;;;;;;;7.17;6.50;;;23.40;94.70;;;;;;5065554;28;20241;-78
2022/04/13 12:43:56;;;;;;;6.90;6.40;;;23.40;94.20;;;;;;5078462;28;20213;-77
2022/04/13 12:46:24;;;;;;;7.53;6.30;;;23.50;95.20;;;;;;5061904;28;20195;-77
2022/04/13 12:48:53;;;;;;;7.53;6.43;;;23.50;94.40;;;;;;5078866;28;20293;-77
2022/04/13 12:51:20;;;;;;;6.57;5.83;;;23.50;93.20;;;;;;5076261;28;20286;-78
2022/04/13 12:53:53;;;;;;;8.33;6.50;;;23.50;93.60;;;;;;5064498;28;20191;-77
2022/04/13 12:56:22;;;;;;;6.13;5.63;;;23.60;93.40;;;;;;5059858;28;20734;-78